sensor_id;sensor_type;location;lat;lon;timestamp;pressure;altitude;pressure_sealevel;temperature;humidity
41703;BME280;861;48.808;9.006;2023-02-21T00:00:34;97604.25;;;7.43;58.89
41703;BME280;861;48.808;9.006;2023-02-21T00:03:19;97605.81;;;7.44;59.90
41703;BME280;861;48.808;9.006;2023-02-21T00:06:07;97606.84;;;7.55;59.32
41703;BME280;861;48.808;9.006;2023-02-21T00:08:52;97595.78;;;7.45;59.44
41703;BME280;861;48.808;9.006;2023-02-21T00:11:43;97593.47;;;7.47;59.00
41703;BME280;861;48.808;9.006;2023-02-21T00:14:28;97588.31;;;7.57;59.05
41703;BME280;861;48.808;9.006;2023-02-21T00:17:14;97590.97;;;7.38;59.36
41703;BME280;861;48.808;9.006;2023-02-21T00:19:58;97590.97;;;7.23;60.02
41703;BME280;861;48.808;9.006;2023-02-21T00:22:45;97590.41;;;6.86;60.89
41703;BME280;861;48.808;9.006;2023-02-21T00:25:30;97580.22;;;7.11;60.63
41703;BME280;861;48.808;9.006;2023-02-21T00:28:14;97582.31;;;7.17;60.63
41703;BME280;861;48.808;9.006;2023-02-21T00:30:59;97584.03;;;6.63;61.83
41703;BME280;861;48.808;9.006;2023-02-21T00:33:44;97586.16;;;6.85;61.66
41703;BME280;861;48.808;9.006;2023-02-21T00:36:29;97585.94;;;6.63;62.10
41703;BME280;861;48.808;9.006;2023-02-21T00:39:13;97581.16;;;6.87;61.72
41703;BME280;861;48.808;9.006;2023-02-21T00:41:58;97584.91;;;6.83;61.96
41703;BME280;861;48.808;9.006;2023-02-21T00:44:43;97577.38;;;6.61;62.32
41703;BME280;861;48.808;9.006;2023-02-21T00:47:28;97579.19;;;6.57;63.17
41703;BME280;861;48.808;9.006;2023-02-21T00:50:14;97568.94;;;6.35;63.74
41703;BME280;861;48.808;9.006;2023-02-21T00:52:59;97579.03;;;6.65;62.58
41703;BME280;861;48.808;9.006;2023-02-21T00:55:43;97568.19;;;6.65;62.97
41703;BME280;861;48.808;9.006;2023-02-21T00:58:28;97572.41;;;6.35;64.32
41703;BME280;861;48.808;9.006;2023-02-21T01:01:13;97567.50;;;6.25;64.55
41703;BME280;861;48.808;9.006;2023-02-21T01:03:58;97565.88;;;6.36;64.29
41703;BME280;861;48.808;9.006;2023-02-21T01:06:43;97574.25;;;5.79;65.98
41703;BME280;861;48.808;9.006;2023-02-21T01:09:28;97569.31;;;6.21;65.37
41703;BME280;861;48.808;9.006;2023-02-21T01:12:13;97564.69;;;5.82;66.00
41703;BME280;861;48.808;9.006;2023-02-21T01:14:57;97558.69;;;6.28;64.79
41703;BME280;861;48.808;9.006;2023-02-21T01:17:42;97559.22;;;6.06;64.67
41703;BME280;861;48.808;9.006;2023-02-21T01:20:27;97563.41;;;6.31;64.99
41703;BME280;861;48.808;9.006;2023-02-21T01:23:12;97562.84;;;6.38;64.63
41703;BME280;861;48.808;9.006;2023-02-21T01:25:56;97561.53;;;6.19;64.87
41703;BME280;861;48.808;9.006;2023-02-21T01:28:41;97552.09;;;5.86;66.45
41703;BME280;861;48.808;9.006;2023-02-21T01:31:25;97560.25;;;6.29;65.37
41703;BME280;861;48.808;9.006;2023-02-21T01:34:10;97561.19;;;6.21;65.87
41703;BME280;861;48.808;9.006;2023-02-21T01:36:56;97567.16;;;6.27;65.56
41703;BME280;861;48.808;9.006;2023-02-21T01:39:41;97557.06;;;6.11;66.08
41703;BME280;861;48.808;9.006;2023-02-21T01:42:26;97553.09;;;6.21;66.07
41703;BME280;861;48.808;9.006;2023-02-21T01:48:11;97551.78;;;6.43;65.88
41703;BME280;861;48.808;9.006;2023-02-21T01:51:04;97552.53;;;5.76;67.18
41703;BME280;861;48.808;9.006;2023-02-21T01:53:54;97545.13;;;5.61;68.37
41703;BME280;861;48.808;9.006;2023-02-21T01:56:40;97545.47;;;6.11;66.33
41703;BME280;861;48.808;9.006;2023-02-21T01:59:27;97539.28;;;6.38;65.09
41703;BME280;861;48.808;9.006;2023-02-21T02:02:27;97534.53;;;6.63;64.56
41703;BME280;861;48.808;9.006;2023-02-21T02:05:31;97536.53;;;6.66;64.32
41703;BME280;861;48.808;9.006;2023-02-21T02:08:30;97529.72;;;6.72;64.71
41703;BME280;861;48.808;9.006;2023-02-21T02:15:12;97521.44;;;6.65;63.93
41703;BME280;861;48.808;9.006;2023-02-21T02:21:37;97519.91;;;6.36;65.08
41703;BME280;861;48.808;9.006;2023-02-21T02:24:34;97521.28;;;6.30;65.60
41703;BME280;861;48.808;9.006;2023-02-21T02:27:47;97521.94;;;6.55;64.95
41703;BME280;861;48.808;9.006;2023-02-21T02:34:33;97510.84;;;6.44;65.32
41703;BME280;861;48.808;9.006;2023-02-21T02:40:34;97512.97;;;6.51;65.65
41703;BME280;861;48.808;9.006;2023-02-21T02:43:44;97501.25;;;6.62;64.57
41703;BME280;861;48.808;9.006;2023-02-21T02:46:26;97508.88;;;6.72;64.58
41703;BME280;861;48.808;9.006;2023-02-21T02:49:20;97509.13;;;6.67;64.28
41703;BME280;861;48.808;9.006;2023-02-21T02:51:52;97495.44;;;6.60;64.50
41703;BME280;861;48.808;9.006;2023-02-21T02:54:20;97499.09;;;6.52;64.87
41703;BME280;861;48.808;9.006;2023-02-21T02:56:47;97503.88;;;6.59;65.33
41703;BME280;861;48.808;9.006;2023-02-21T02:59:27;97503.09;;;6.58;65.57
41703;BME280;861;48.808;9.006;2023-02-21T03:11:55;97500.31;;;6.70;65.13
41703;BME280;861;48.808;9.006;2023-02-21T03:14:42;97510.59;;;6.49;65.53
41703;BME280;861;48.808;9.006;2023-02-21T03:17:22;97508.16;;;6.44;65.99
41703;BME280;861;48.808;9.006;2023-02-21T03:19:58;97509.63;;;6.57;65.81
41703;BME280;861;48.808;9.006;2023-02-21T03:22:30;97505.59;;;6.36;66.88
41703;BME280;861;48.808;9.006;2023-02-21T03:25:02;97500.84;;;6.17;67.10
41703;BME280;861;48.808;9.006;2023-02-21T03:27:33;97504.25;;;6.14;67.33
41703;BME280;861;48.808;9.006;2023-02-21T03:30:07;97506.78;;;6.22;66.76
41703;BME280;861;48.808;9.006;2023-02-21T03:32:51;97507.81;;;6.18;67.09
41703;BME280;861;48.808;9.006;2023-02-21T03:35:21;97505.88;;;5.91;67.74
41703;BME280;861;48.808;9.006;2023-02-21T03:37:52;97506.72;;;5.79;68.07
41703;BME280;861;48.808;9.006;2023-02-21T03:40:23;97499.34;;;6.19;67.69
41703;BME280;861;48.808;9.006;2023-02-21T03:42:57;97509.16;;;5.96;67.76
41703;BME280;861;48.808;9.006;2023-02-21T03:45:25;97512.88;;;5.92;67.99
41703;BME280;861;48.808;9.006;2023-02-21T03:47:52;97505.97;;;6.06;67.63
41703;BME280;861;48.808;9.006;2023-02-21T03:50:18;97500.59;;;6.22;67.32
41703;BME280;861;48.808;9.006;2023-02-21T03:52:45;97501.72;;;6.21;67.34
41703;BME280;861;48.808;9.006;2023-02-21T03:55:11;97507.97;;;6.09;67.68
41703;BME280;861;48.808;9.006;2023-02-21T03:57:37;97507.03;;;6.17;67.25
41703;BME280;861;48.808;9.006;2023-02-21T04:00:04;97504.06;;;6.22;66.90
41703;BME280;861;48.808;9.006;2023-02-21T04:02:31;97501.53;;;6.14;67.27
41703;BME280;861;48.808;9.006;2023-02-21T04:04:57;97510.97;;;6.20;67.01
41703;BME280;861;48.808;9.006;2023-02-21T04:07:24;97498.38;;;6.12;67.50
41703;BME280;861;48.808;9.006;2023-02-21T04:09:51;97502.72;;;6.29;66.93
41703;BME280;861;48.808;9.006;2023-02-21T04:12:17;97497.47;;;6.36;66.55
41703;BME280;861;48.808;9.006;2023-02-21T04:14:43;97506.50;;;6.12;67.81
41703;BME280;861;48.808;9.006;2023-02-21T04:17:09;97493.31;;;6.10;68.02
41703;BME280;861;48.808;9.006;2023-02-21T04:19:36;97495.84;;;6.03;68.01
41703;BME280;861;48.808;9.006;2023-02-21T04:22:02;97491.91;;;6.29;66.89
41703;BME280;861;48.808;9.006;2023-02-21T04:24:28;97500.81;;;6.01;67.82
41703;BME280;861;48.808;9.006;2023-02-21T04:26:55;97509.94;;;6.24;66.74
41703;BME280;861;48.808;9.006;2023-02-21T04:29:21;97496.97;;;6.30;66.77
41703;BME280;861;48.808;9.006;2023-02-21T04:31:47;97495.72;;;6.28;66.77
41703;BME280;861;48.808;9.006;2023-02-21T04:34:13;97497.53;;;5.96;67.98
41703;BME280;861;48.808;9.006;2023-02-21T04:36:40;97505.75;;;5.99;68.01
41703;BME280;861;48.808;9.006;2023-02-21T04:39:07;97501.19;;;6.15;67.03
41703;BME280;861;48.808;9.006;2023-02-21T04:41:33;97501.66;;;6.33;66.60
41703;BME280;861;48.808;9.006;2023-02-21T04:44:00;97509.59;;;6.42;66.68
41703;BME280;861;48.808;9.006;2023-02-21T04:46:26;97503.50;;;6.45;66.07
41703;BME280;861;48.808;9.006;2023-02-21T04:48:52;97506.06;;;6.53;65.60
41703;BME280;861;48.808;9.006;2023-02-21T04:51:24;97507.63;;;6.54;65.48
41703;BME280;861;48.808;9.006;2023-02-21T04:53:53;97498.03;;;6.57;65.35
41703;BME280;861;48.808;9.006;2023-02-21T04:56:24;97505.19;;;6.49;66.29
41703;BME280;861;48.808;9.006;2023-02-21T04:58:53;97500.44;;;6.46;66.17
41703;BME280;861;48.808;9.006;2023-02-21T05:01:20;97499.72;;;6.34;65.93
41703;BME280;861;48.808;9.006;2023-02-21T05:03:48;97496.84;;;6.27;66.49
41703;BME280;861;48.808;9.006;2023-02-21T05:06:24;97505.47;;;6.16;67.28
41703;BME280;861;48.808;9.006;2023-02-21T05:08:52;97491.09;;;6.00;67.07
41703;BME280;861;48.808;9.006;2023-02-21T05:11:20;97487.78;;;6.19;66.94
41703;BME280;861;48.808;9.006;2023-02-21T05:13:48;97484.66;;;6.33;66.24
41703;BME280;861;48.808;9.006;2023-02-21T05:16:15;97484.94;;;6.00;67.35
41703;BME280;861;48.808;9.006;2023-02-21T05:18:45;97490.34;;;6.00;67.51
41703;BME280;861;48.808;9.006;2023-02-21T05:21:17;97490.47;;;5.91;67.73
41703;BME280;861;48.808;9.006;2023-02-21T05:23:44;97483.16;;;5.80;67.74
41703;BME280;861;48.808;9.006;2023-02-21T05:26:27;97494.72;;;6.04;67.17
41703;BME280;861;48.808;9.006;2023-02-21T05:28:59;97492.44;;;6.06;67.10
41703;BME280;861;48.808;9.006;2023-02-21T05:31:25;97480.75;;;6.02;66.98
41703;BME280;861;48.808;9.006;2023-02-21T05:33:52;97482.03;;;6.20;66.27
41703;BME280;861;48.808;9.006;2023-02-21T05:36:18;97481.31;;;6.23;66.39
41703;BME280;861;48.808;9.006;2023-02-21T05:38:51;97472.28;;;6.32;66.32
41703;BME280;861;48.808;9.006;2023-02-21T05:41:20;97472.53;;;5.99;66.92
41703;BME280;861;48.808;9.006;2023-02-21T05:43:49;97481.50;;;5.75;67.80
41703;BME280;861;48.808;9.006;2023-02-21T05:46:26;97484.09;;;5.84;67.22
41703;BME280;861;48.808;9.006;2023-02-21T05:48:58;97495.50;;;5.65;68.42
41703;BME280;861;48.808;9.006;2023-02-21T05:51:27;97490.44;;;5.52;68.59
41703;BME280;861;48.808;9.006;2023-02-21T05:53:58;97488.25;;;5.42;69.09
41703;BME280;861;48.808;9.006;2023-02-21T05:56:24;97488.53;;;5.52;68.91
41703;BME280;861;48.808;9.006;2023-02-21T05:58:50;97502.59;;;5.58;68.66
41703;BME280;861;48.808;9.006;2023-02-21T06:01:16;97497.84;;;5.15;69.43
41703;BME280;861;48.808;9.006;2023-02-21T06:03:43;97491.81;;;5.46;68.67
41703;BME280;861;48.808;9.006;2023-02-21T06:06:09;97502.03;;;5.52;68.10
41703;BME280;861;48.808;9.006;2023-02-21T06:08:47;97489.56;;;5.48;68.77
41703;BME280;861;48.808;9.006;2023-02-21T06:11:27;97485.31;;;5.74;67.38
41703;BME280;861;48.808;9.006;2023-02-21T06:14:00;97484.97;;;5.88;67.53
41703;BME280;861;48.808;9.006;2023-02-21T06:16:36;97484.69;;;6.05;66.75
41703;BME280;861;48.808;9.006;2023-02-21T06:19:07;97483.16;;;5.80;67.22
41703;BME280;861;48.808;9.006;2023-02-21T06:21:35;97496.06;;;5.47;68.30
41703;BME280;861;48.808;9.006;2023-02-21T06:24:03;97482.91;;;5.57;67.56
41703;BME280;861;48.808;9.006;2023-02-21T06:26:29;97480.06;;;5.66;67.34
41703;BME280;861;48.808;9.006;2023-02-21T06:28:56;97479.00;;;5.43;67.25
41703;BME280;861;48.808;9.006;2023-02-21T06:31:22;97475.66;;;5.22;67.97
41703;BME280;861;48.808;9.006;2023-02-21T06:33:49;97478.16;;;5.15;68.48
41703;BME280;861;48.808;9.006;2023-02-21T06:36:23;97478.50;;;5.13;69.03
41703;BME280;861;48.808;9.006;2023-02-21T06:38:54;97478.38;;;4.98;69.16
41703;BME280;861;48.808;9.006;2023-02-21T06:41:28;97481.81;;;5.34;68.57
41703;BME280;861;48.808;9.006;2023-02-21T06:43:58;97485.78;;;5.13;69.37
41703;BME280;861;48.808;9.006;2023-02-21T06:46:29;97479.63;;;5.00;70.06
41703;BME280;861;48.808;9.006;2023-02-21T06:48:56;97488.28;;;4.94;70.13
41703;BME280;861;48.808;9.006;2023-02-21T06:51:23;97474.88;;;5.21;69.71
41703;BME280;861;48.808;9.006;2023-02-21T06:53:56;97473.13;;;5.53;69.03
41703;BME280;861;48.808;9.006;2023-02-21T06:56:23;97489.00;;;5.42;69.15
41703;BME280;861;48.808;9.006;2023-02-21T06:58:49;97481.66;;;5.55;69.49
41703;BME280;861;48.808;9.006;2023-02-21T07:01:16;97494.22;;;5.75;69.05
41703;BME280;861;48.808;9.006;2023-02-21T07:03:42;97494.91;;;5.72;68.83
41703;BME280;861;48.808;9.006;2023-02-21T07:06:10;97489.25;;;5.77;68.93
41703;BME280;861;48.808;9.006;2023-02-21T07:08:36;97496.47;;;5.85;68.49
41703;BME280;861;48.808;9.006;2023-02-21T07:11:04;97489.19;;;6.01;68.06
41703;BME280;861;48.808;9.006;2023-02-21T07:13:31;97490.19;;;6.24;67.28
41703;BME280;861;48.808;9.006;2023-02-21T07:15:59;97490.75;;;6.30;67.65
41703;BME280;861;48.808;9.006;2023-02-21T07:18:26;97493.72;;;6.40;66.91
41703;BME280;861;48.808;9.006;2023-02-21T07:20:52;97494.78;;;6.51;66.51
41703;BME280;861;48.808;9.006;2023-02-21T07:23:18;97491.50;;;6.73;66.16
41703;BME280;861;48.808;9.006;2023-02-21T07:25:45;97484.88;;;6.86;65.90
41703;BME280;861;48.808;9.006;2023-02-21T07:28:11;97495.16;;;6.96;65.19
41703;BME280;861;48.808;9.006;2023-02-21T07:30:37;97491.06;;;6.87;66.02
41703;BME280;861;48.808;9.006;2023-02-21T07:33:03;97497.09;;;6.96;65.49
41703;BME280;861;48.808;9.006;2023-02-21T07:35:30;97499.19;;;7.02;65.04
41703;BME280;861;48.808;9.006;2023-02-21T07:37:56;97494.81;;;7.13;65.13
41703;BME280;861;48.808;9.006;2023-02-21T07:40:22;97493.75;;;7.18;64.93
41703;BME280;861;48.808;9.006;2023-02-21T07:42:48;97497.84;;;7.12;65.62
41703;BME280;861;48.808;9.006;2023-02-21T07:45:16;97497.47;;;7.29;64.85
41703;BME280;861;48.808;9.006;2023-02-21T07:47:44;97493.75;;;7.02;66.15
41703;BME280;861;48.808;9.006;2023-02-21T07:50:11;97489.13;;;6.87;67.62
41703;BME280;861;48.808;9.006;2023-02-21T07:52:37;97489.03;;;7.15;66.90
41703;BME280;861;48.808;9.006;2023-02-21T07:55:04;97493.75;;;7.18;66.13
41703;BME280;861;48.808;9.006;2023-02-21T07:57:31;97493.84;;;7.21;66.28
41703;BME280;861;48.808;9.006;2023-02-21T07:59:57;97488.03;;;7.38;65.82
41703;BME280;861;48.808;9.006;2023-02-21T08:02:23;97489.28;;;7.25;66.29
41703;BME280;861;48.808;9.006;2023-02-21T08:04:51;97491.53;;;7.39;66.01
41703;BME280;861;48.808;9.006;2023-02-21T08:07:18;97491.47;;;7.54;65.82
41703;BME280;861;48.808;9.006;2023-02-21T08:09:44;97491.56;;;7.77;65.52
41703;BME280;861;48.808;9.006;2023-02-21T08:12:11;97489.44;;;7.67;65.42
41703;BME280;861;48.808;9.006;2023-02-21T08:14:37;97494.91;;;7.51;66.11
41703;BME280;861;48.808;9.006;2023-02-21T08:17:03;97498.69;;;7.66;66.25
41703;BME280;861;48.808;9.006;2023-02-21T08:19:30;97501.63;;;7.76;65.71
41703;BME280;861;48.808;9.006;2023-02-21T08:21:56;97488.94;;;8.00;64.72
41703;BME280;861;48.808;9.006;2023-02-21T08:24:22;97495.22;;;8.23;64.65
41703;BME280;861;48.808;9.006;2023-02-21T08:26:48;97501.78;;;8.41;64.13
41703;BME280;861;48.808;9.006;2023-02-21T08:29:15;97502.75;;;8.52;64.24
41703;BME280;861;48.808;9.006;2023-02-21T08:31:42;97499.66;;;8.72;63.61
41703;BME280;861;48.808;9.006;2023-02-21T08:34:11;97494.31;;;9.02;62.78
41703;BME280;861;48.808;9.006;2023-02-21T08:36:42;97492.72;;;9.23;62.11
41703;BME280;861;48.808;9.006;2023-02-21T08:39:10;97506.84;;;9.32;62.55
41703;BME280;861;48.808;9.006;2023-02-21T08:41:41;97502.81;;;9.23;63.23
41703;BME280;861;48.808;9.006;2023-02-21T08:44:16;97502.38;;;9.21;64.05
41703;BME280;861;48.808;9.006;2023-02-21T08:46:43;97493.28;;;9.36;63.77
41703;BME280;861;48.808;9.006;2023-02-21T08:49:10;97498.38;;;9.64;62.83
41703;BME280;861;48.808;9.006;2023-02-21T08:51:37;97500.66;;;9.91;62.46
41703;BME280;861;48.808;9.006;2023-02-21T08:54:03;97491.13;;;10.04;62.68
41703;BME280;861;48.808;9.006;2023-02-21T08:56:30;97494.56;;;10.27;63.04
41703;BME280;861;48.808;9.006;2023-02-21T08:58:57;97493.72;;;10.60;61.39
41703;BME280;861;48.808;9.006;2023-02-21T09:01:33;97493.53;;;10.79;60.24
41703;BME280;861;48.808;9.006;2023-02-21T09:04:02;97495.66;;;11.03;58.79
41703;BME280;861;48.808;9.006;2023-02-21T09:06:29;97488.25;;;10.97;59.70
41703;BME280;861;48.808;9.006;2023-02-21T09:08:57;97486.00;;;11.09;59.87
41703;BME280;861;48.808;9.006;2023-02-21T09:11:23;97485.84;;;11.42;59.10
41703;BME280;861;48.808;9.006;2023-02-21T09:13:49;97477.50;;;11.72;57.52
41703;BME280;861;48.808;9.006;2023-02-21T09:16:17;97485.78;;;11.96;56.50
41703;BME280;861;48.808;9.006;2023-02-21T09:18:52;97482.78;;;12.19;56.72
41703;BME280;861;48.808;9.006;2023-02-21T09:21:19;97482.38;;;12.17;55.09
41703;BME280;861;48.808;9.006;2023-02-21T09:23:45;97477.72;;;12.24;57.16
41703;BME280;861;48.808;9.006;2023-02-21T09:26:11;97486.00;;;12.60;56.02
41703;BME280;861;48.808;9.006;2023-02-21T09:28:37;97480.97;;;12.79;55.42
41703;BME280;861;48.808;9.006;2023-02-21T09:31:09;97488.38;;;12.89;53.98
41703;BME280;861;48.808;9.006;2023-02-21T09:33:38;97481.81;;;13.04;53.32
41703;BME280;861;48.808;9.006;2023-02-21T09:36:09;97479.84;;;13.12;53.49
41703;BME280;861;48.808;9.006;2023-02-21T09:38:37;97489.22;;;13.42;53.92
41703;BME280;861;48.808;9.006;2023-02-21T09:41:12;97483.69;;;13.67;53.64
41703;BME280;861;48.808;9.006;2023-02-21T09:43:47;97486.00;;;13.82;53.17
41703;BME280;861;48.808;9.006;2023-02-21T09:46:36;97473.78;;;14.12;52.08
41703;BME280;861;48.808;9.006;2023-02-21T09:49:27;97472.56;;;14.27;53.22
41703;BME280;861;48.808;9.006;2023-02-21T09:52:03;97467.72;;;14.55;52.12
41703;BME280;861;48.808;9.006;2023-02-21T09:57:17;97461.38;;;15.20;50.30
41703;BME280;861;48.808;9.006;2023-02-21T09:59:48;97466.25;;;15.46;50.52
41703;BME280;861;48.808;9.006;2023-02-21T10:06:25;97457.72;;;15.74;50.71
41703;BME280;861;48.808;9.006;2023-02-21T10:15:51;97455.41;;;15.73;51.25
41703;BME280;861;48.808;9.006;2023-02-21T10:21:43;97462.31;;;16.21;49.36
41703;BME280;861;48.808;9.006;2023-02-21T10:24:23;97458.06;;;16.47;48.34
41703;BME280;861;48.808;9.006;2023-02-21T10:27:07;97451.03;;;16.72;48.44
41703;BME280;861;48.808;9.006;2023-02-21T10:32:26;97447.19;;;16.93;47.49
41703;BME280;861;48.808;9.006;2023-02-21T10:34:56;97452.63;;;16.97;47.55
41703;BME280;861;48.808;9.006;2023-02-21T10:37:58;97447.84;;;17.01;47.84
41703;BME280;861;48.808;9.006;2023-02-21T10:40:47;97448.28;;;17.22;47.06
41703;BME280;861;48.808;9.006;2023-02-21T10:43:47;97452.97;;;17.48;46.84
41703;BME280;861;48.808;9.006;2023-02-21T10:46:27;97447.53;;;17.41;46.36
41703;BME280;861;48.808;9.006;2023-02-21T10:49:33;97443.91;;;17.71;47.03
41703;BME280;861;48.808;9.006;2023-02-21T10:52:16;97445.34;;;17.56;46.81
41703;BME280;861;48.808;9.006;2023-02-21T10:55:15;97444.81;;;17.84;48.16
41703;BME280;861;48.808;9.006;2023-02-21T10:57:56;97439.69;;;18.05;45.99
41703;BME280;861;48.808;9.006;2023-02-21T11:00:38;97436.69;;;18.36;44.30
41703;BME280;861;48.808;9.006;2023-02-21T11:03:23;97435.56;;;18.53;46.59
41703;BME280;861;48.808;9.006;2023-02-21T11:05:57;97422.22;;;18.67;44.74
41703;BME280;861;48.808;9.006;2023-02-21T11:08:39;97424.06;;;18.90;45.11
41703;BME280;861;48.808;9.006;2023-02-21T11:11:08;97420.00;;;18.94;45.62
41703;BME280;861;48.808;9.006;2023-02-21T11:13:37;97411.38;;;19.24;42.44
41703;BME280;861;48.808;9.006;2023-02-21T11:16:18;97414.84;;;19.12;44.13
41703;BME280;861;48.808;9.006;2023-02-21T11:19:06;97409.03;;;19.23;43.28
41703;BME280;861;48.808;9.006;2023-02-21T11:21:33;97405.78;;;19.28;43.55
41703;BME280;861;48.808;9.006;2023-02-21T11:24:05;97402.94;;;19.31;42.94
41703;BME280;861;48.808;9.006;2023-02-21T11:26:52;97407.34;;;19.29;43.31
41703;BME280;861;48.808;9.006;2023-02-21T11:29:24;97396.22;;;19.61;43.91
41703;BME280;861;48.808;9.006;2023-02-21T11:31:54;97394.69;;;19.89;43.48
41703;BME280;861;48.808;9.006;2023-02-21T11:34:28;97388.28;;;19.92;42.58
41703;BME280;861;48.808;9.006;2023-02-21T11:37:03;97383.72;;;19.85;43.05
41703;BME280;861;48.808;9.006;2023-02-21T11:39:34;97377.97;;;19.92;43.00
41703;BME280;861;48.808;9.006;2023-02-21T11:42:29;97380.56;;;19.99;42.17
41703;BME280;861;48.808;9.006;2023-02-21T11:45:27;97375.00;;;20.28;42.69
41703;BME280;861;48.808;9.006;2023-02-21T11:48:12;97362.00;;;20.12;42.82
41703;BME280;861;48.808;9.006;2023-02-21T11:50:52;97368.34;;;20.25;41.46
41703;BME280;861;48.808;9.006;2023-02-21T11:53:39;97360.19;;;20.34;41.79
41703;BME280;861;48.808;9.006;2023-02-21T11:56:42;97353.19;;;20.42;41.39
41703;BME280;861;48.808;9.006;2023-02-21T12:03:01;97346.91;;;20.67;41.08
41703;BME280;861;48.808;9.006;2023-02-21T12:07:03;97335.38;;;20.81;41.77
41703;BME280;861;48.808;9.006;2023-02-21T12:23:46;97306.59;;;21.25;39.74
41703;BME280;861;48.808;9.006;2023-02-21T12:26:56;97292.53;;;21.19;40.55
41703;BME280;861;48.808;9.006;2023-02-21T12:30:11;97293.00;;;21.40;39.92
41703;BME280;861;48.808;9.006;2023-02-21T12:36:25;97288.38;;;21.58;40.88
41703;BME280;861;48.808;9.006;2023-02-21T12:49:13;97271.63;;;21.83;39.24
41703;BME280;861;48.808;9.006;2023-02-21T12:52:14;97268.00;;;21.74;40.58
41703;BME280;861;48.808;9.006;2023-02-21T12:55:18;97264.06;;;21.62;39.35
41703;BME280;861;48.808;9.006;2023-02-21T12:58:29;97253.50;;;21.48;38.82
41703;BME280;861;48.808;9.006;2023-02-21T13:01:25;97247.13;;;21.17;39.16
41703;BME280;861;48.808;9.006;2023-02-21T13:04:47;97240.97;;;21.65;39.70
41703;BME280;861;48.808;9.006;2023-02-21T13:07:41;97235.94;;;21.94;39.46
41703;BME280;861;48.808;9.006;2023-02-21T13:10:25;97231.25;;;22.22;38.95
41703;BME280;861;48.808;9.006;2023-02-21T13:13:18;97215.28;;;22.35;38.07
41703;BME280;861;48.808;9.006;2023-02-21T13:15:50;97221.38;;;22.51;38.00
41703;BME280;861;48.808;9.006;2023-02-21T13:18:47;97203.66;;;22.58;38.94
41703;BME280;861;48.808;9.006;2023-02-21T13:24:51;97211.97;;;22.67;37.74
41703;BME280;861;48.808;9.006;2023-02-21T13:28:20;97206.44;;;22.58;38.40
41703;BME280;861;48.808;9.006;2023-02-21T13:30:59;97198.56;;;22.84;36.98
41703;BME280;861;48.808;9.006;2023-02-21T13:33:55;97193.34;;;22.67;37.57
41703;BME280;861;48.808;9.006;2023-02-21T13:36:42;97196.84;;;22.77;39.10
41703;BME280;861;48.808;9.006;2023-02-21T13:39:27;97187.16;;;23.00;37.60
41703;BME280;861;48.808;9.006;2023-02-21T13:42:21;97174.03;;;23.00;37.01
41703;BME280;861;48.808;9.006;2023-02-21T13:45:17;97168.78;;;23.20;36.68
41703;BME280;861;48.808;9.006;2023-02-21T13:58:42;97151.91;;;23.42;37.26
41703;BME280;861;48.808;9.006;2023-02-21T14:08:52;97142.84;;;23.14;37.10
41703;BME280;861;48.808;9.006;2023-02-21T14:14:01;97137.72;;;23.22;37.11
41703;BME280;861;48.808;9.006;2023-02-21T14:17:03;97137.00;;;23.30;36.90
41703;BME280;861;48.808;9.006;2023-02-21T14:22:22;97128.97;;;23.14;36.23
41703;BME280;861;48.808;9.006;2023-02-21T14:25:20;97124.94;;;23.24;36.93
41703;BME280;861;48.808;9.006;2023-02-21T14:27:50;97132.19;;;23.31;36.73
41703;BME280;861;48.808;9.006;2023-02-21T14:30:32;97126.00;;;23.36;36.06
41703;BME280;861;48.808;9.006;2023-02-21T14:33:24;97125.69;;;23.25;36.91
41703;BME280;861;48.808;9.006;2023-02-21T14:36:16;97125.53;;;23.37;36.50
41703;BME280;861;48.808;9.006;2023-02-21T14:38:44;97122.13;;;23.42;37.04
41703;BME280;861;48.808;9.006;2023-02-21T14:54:44;97100.00;;;23.57;35.78
41703;BME280;861;48.808;9.006;2023-02-21T15:01:57;97104.59;;;23.60;36.67
41703;BME280;861;48.808;9.006;2023-02-21T15:08:14;97097.53;;;23.59;36.27
41703;BME280;861;48.808;9.006;2023-02-21T15:10:50;97093.13;;;23.67;35.68
41703;BME280;861;48.808;9.006;2023-02-21T15:13:33;97092.97;;;23.70;35.84
41703;BME280;861;48.808;9.006;2023-02-21T15:16:09;97096.91;;;23.87;35.23
41703;BME280;861;48.808;9.006;2023-02-21T15:18:55;97091.44;;;23.69;35.55
41703;BME280;861;48.808;9.006;2023-02-21T15:21:25;97088.63;;;23.37;36.55
41703;BME280;861;48.808;9.006;2023-02-21T15:24:15;97084.72;;;23.43;36.97
41703;BME280;861;48.808;9.006;2023-02-21T15:26:42;97087.88;;;23.36;36.85
41703;BME280;861;48.808;9.006;2023-02-21T15:29:16;97079.53;;;23.36;36.77
41703;BME280;861;48.808;9.006;2023-02-21T15:31:51;97086.50;;;23.32;37.12
41703;BME280;861;48.808;9.006;2023-02-21T15:34:26;97083.97;;;23.43;36.36
41703;BME280;861;48.808;9.006;2023-02-21T15:37:19;97081.38;;;23.21;37.30
41703;BME280;861;48.808;9.006;2023-02-21T15:40:22;97074.50;;;22.99;37.56
41703;BME280;861;48.808;9.006;2023-02-21T15:42:54;97071.75;;;22.90;37.36
41703;BME280;861;48.808;9.006;2023-02-21T15:45:34;97068.38;;;22.77;37.18
41703;BME280;861;48.808;9.006;2023-02-21T15:48:09;97073.16;;;22.76;37.58
41703;BME280;861;48.808;9.006;2023-02-21T15:50:43;97068.22;;;22.71;37.37
41703;BME280;861;48.808;9.006;2023-02-21T15:53:22;97072.53;;;22.54;37.44
41703;BME280;861;48.808;9.006;2023-02-21T15:55:52;97060.34;;;22.33;37.31
41703;BME280;861;48.808;9.006;2023-02-21T15:58:26;97061.69;;;22.02;37.49
41703;BME280;861;48.808;9.006;2023-02-21T16:01:09;97061.81;;;21.80;38.35
41703;BME280;861;48.808;9.006;2023-02-21T16:03:41;97066.06;;;21.72;38.26
41703;BME280;861;48.808;9.006;2023-02-21T16:06:28;97058.78;;;21.57;39.07
41703;BME280;861;48.808;9.006;2023-02-21T16:09:26;97061.75;;;21.23;39.46
41703;BME280;861;48.808;9.006;2023-02-21T16:14:56;97052.47;;;20.95;40.36
41703;BME280;861;48.808;9.006;2023-02-21T16:17:36;97044.59;;;20.63;41.01
41703;BME280;861;48.808;9.006;2023-02-21T16:20:39;97046.44;;;20.44;41.65
41703;BME280;861;48.808;9.006;2023-02-21T16:23:39;97051.06;;;20.26;41.34
41703;BME280;861;48.808;9.006;2023-02-21T16:28:37;97058.69;;;19.88;42.80
41703;BME280;861;48.808;9.006;2023-02-21T16:31:13;97050.00;;;19.64;42.95
41703;BME280;861;48.808;9.006;2023-02-21T16:33:54;97055.41;;;19.55;43.26
41703;BME280;861;48.808;9.006;2023-02-21T16:36:31;97057.31;;;19.45;43.49